sensor_id;sensor_type;location;lat;lon;timestamp;temperature;humidity
26037;DHT22;13810;48.376;10.944;2023-12-29T00:00:11;7.60;99.90
26037;DHT22;13810;48.376;10.944;2023-12-29T00:00:42;7.60;99.90
26037;DHT22;13810;48.376;10.944;2023-12-29T00:01:12;7.50;99.90
26037;DHT22;13810;48.376;10.944;2023-12-29T00:01:43;7.50;99.90
26037;DHT22;13810;48.376;10.944;2023-12-29T00:02:14;7.50;99.90
26037;DHT22;13810;48.376;10.944;2023-12-29T00:02:44;7.50;99.90
26037;DHT22;13810;48.376;10.944;2023-12-29T00:03:15;7.40;99.90
26037;DHT22;13810;48.376;10.944;2023-12-29T00:03:46;7.40;99.90
26037;DHT22;13810;48.376;10.944;2023-12-29T00:04:16;7.40;99.90
26037;DHT22;13810;48.376;10.944;2023-12-29T00:04:47;7.40;99.90
26037;DHT22;13810;48.376;10.944;2023-12-29T00:05:18;7.40;99.90
26037;DHT22;13810;48.376;10.944;2023-12-29T00:05:48;7.30;99.90
26037;DHT22;13810;48.376;10.944;2023-12-29T00:06:19;7.30;99.90
26037;DHT22;13810;48.376;10.944;2023-12-29T00:06:49;7.30;99.90
26037;DHT22;13810;48.376;10.944;2023-12-29T00:07:20;7.30;99.90
26037;DHT22;13810;48.376;10.944;2023-12-29T00:07:51;7.30;99.90
26037;DHT22;13810;48.376;10.944;2023-12-29T00:08:22;7.30;99.90
26037;DHT22;13810;48.376;10.944;2023-12-29T00:08:52;7.30;99.90
26037;DHT22;13810;48.376;10.944;2023-12-29T00:09:23;7.20;99.90
26037;DHT22;13810;48.376;10.944;2023-12-29T00:09:54;7.30;99.90
26037;DHT22;13810;48.376;10.944;2023-12-29T00:10:24;7.30;99.90
26037;DHT22;13810;48.376;10.944;2023-12-29T00:10:55;7.30;99.90
26037;DHT22;13810;48.376;10.944;2023-12-29T00:11:26;7.20;99.90
26037;DHT22;13810;48.376;10.944;2023-12-29T00:11:56;7.20;99.90
26037;DHT22;13810;48.376;10.944;2023-12-29T00:12:27;7.20;99.90
26037;DHT22;13810;48.376;10.944;2023-12-29T00:12:59;7.20;99.90
26037;DHT22;13810;48.376;10.944;2023-12-29T00:13:31;7.20;99.90
26037;DHT22;13810;48.376;10.944;2023-12-29T00:14:02;7.20;99.90
26037;DHT22;13810;48.376;10.944;2023-12-29T00:14:33;7.20;99.90
26037;DHT22;13810;48.376;10.944;2023-12-29T00:15:07;7.20;99.90
26037;DHT22;13810;48.376;10.944;2023-12-29T00:15:37;7.10;99.90
26037;DHT22;13810;48.376;10.944;2023-12-29T00:16:08;7.10;99.90
26037;DHT22;13810;48.376;10.944;2023-12-29T00:16:39;7.10;99.90
26037;DHT22;13810;48.376;10.944;2023-12-29T00:17:09;7.10;99.90
26037;DHT22;13810;48.376;10.944;2023-12-29T00:17:40;7.10;99.90
26037;DHT22;13810;48.376;10.944;2023-12-29T00:18:11;7.10;99.90
26037;DHT22;13810;48.376;10.944;2023-12-29T00:18:41;7.10;99.90
26037;DHT22;13810;48.376;10.944;2023-12-29T00:19:12;7.10;99.90
26037;DHT22;13810;48.376;10.944;2023-12-29T00:19:43;7.10;99.90
26037;DHT22;13810;48.376;10.944;2023-12-29T00:20:14;7.10;99.90
26037;DHT22;13810;48.376;10.944;2023-12-29T00:20:44;7.10;99.90
26037;DHT22;13810;48.376;10.944;2023-12-29T00:21:15;7.10;99.90
26037;DHT22;13810;48.376;10.944;2023-12-29T00:21:46;7.10;99.90
26037;DHT22;13810;48.376;10.944;2023-12-29T00:22:16;7.10;99.90
26037;DHT22;13810;48.376;10.944;2023-12-29T00:22:47;7.10;99.90
26037;DHT22;13810;48.376;10.944;2023-12-29T00:23:17;7.10;99.90
26037;DHT22;13810;48.376;10.944;2023-12-29T00:23:48;7.10;99.90
26037;DHT22;13810;48.376;10.944;2023-12-29T00:24:19;7.10;99.90
26037;DHT22;13810;48.376;10.944;2023-12-29T00:24:50;7.10;99.90
26037;DHT22;13810;48.376;10.944;2023-12-29T00:25:21;7.10;99.90
26037;DHT22;13810;48.376;10.944;2023-12-29T00:25:51;7.00;99.90
26037;DHT22;13810;48.376;10.944;2023-12-29T00:26:22;7.00;99.90
26037;DHT22;13810;48.376;10.944;2023-12-29T00:26:53;7.00;99.90
26037;DHT22;13810;48.376;10.944;2023-12-29T00:27:23;7.00;99.90
26037;DHT22;13810;48.376;10.944;2023-12-29T00:27:54;6.90;99.90
26037;DHT22;13810;48.376;10.944;2023-12-29T00:28:25;6.90;99.90
26037;DHT22;13810;48.376;10.944;2023-12-29T00:28:55;6.90;99.90
26037;DHT22;13810;48.376;10.944;2023-12-29T00:29:26;6.90;99.90
26037;DHT22;13810;48.376;10.944;2023-12-29T00:29:58;6.90;99.90
26037;DHT22;13810;48.376;10.944;2023-12-29T00:30:29;6.90;99.90
26037;DHT22;13810;48.376;10.944;2023-12-29T00:31:02;6.90;99.90
26037;DHT22;13810;48.376;10.944;2023-12-29T00:31:33;6.90;99.90
26037;DHT22;13810;48.376;10.944;2023-12-29T00:32:04;6.80;99.90
26037;DHT22;13810;48.376;10.944;2023-12-29T00:32:35;6.80;99.90
26037;DHT22;13810;48.376;10.944;2023-12-29T00:33:05;6.80;99.90
26037;DHT22;13810;48.376;10.944;2023-12-29T00:33:36;6.80;99.90
26037;DHT22;13810;48.376;10.944;2023-12-29T00:34:07;6.80;99.90
26037;DHT22;13810;48.376;10.944;2023-12-29T00:34:38;6.90;99.90
26037;DHT22;13810;48.376;10.944;2023-12-29T00:35:08;6.90;99.90
26037;DHT22;13810;48.376;10.944;2023-12-29T00:35:39;6.80;99.90
26037;DHT22;13810;48.376;10.944;2023-12-29T00:36:16;6.80;99.90
26037;DHT22;13810;48.376;10.944;2023-12-29T00:36:48;6.80;99.90
26037;DHT22;13810;48.376;10.944;2023-12-29T00:37:19;6.80;99.90
26037;DHT22;13810;48.376;10.944;2023-12-29T00:37:50;6.80;99.90
26037;DHT22;13810;48.376;10.944;2023-12-29T00:38:21;6.80;99.90
26037;DHT22;13810;48.376;10.944;2023-12-29T00:38:51;6.80;99.90
26037;DHT22;13810;48.376;10.944;2023-12-29T00:39:22;6.80;99.90
26037;DHT22;13810;48.376;10.944;2023-12-29T00:39:58;6.80;99.90
26037;DHT22;13810;48.376;10.944;2023-12-29T00:40:29;6.80;99.90
26037;DHT22;13810;48.376;10.944;2023-12-29T00:41:00;6.80;99.90
26037;DHT22;13810;48.376;10.944;2023-12-29T00:41:31;6.80;99.90
26037;DHT22;13810;48.376;10.944;2023-12-29T00:42:05;6.80;99.90
26037;DHT22;13810;48.376;10.944;2023-12-29T00:42:36;6.70;99.90
26037;DHT22;13810;48.376;10.944;2023-12-29T00:43:07;6.80;99.90
26037;DHT22;13810;48.376;10.944;2023-12-29T00:43:38;6.80;99.90
26037;DHT22;13810;48.376;10.944;2023-12-29T00:44:08;6.70;99.90
26037;DHT22;13810;48.376;10.944;2023-12-29T00:44:39;6.70;99.90
26037;DHT22;13810;48.376;10.944;2023-12-29T00:45:10;6.70;99.90
26037;DHT22;13810;48.376;10.944;2023-12-29T00:45:40;6.70;99.90
26037;DHT22;13810;48.376;10.944;2023-12-29T00:46:14;6.70;99.90
26037;DHT22;13810;48.376;10.944;2023-12-29T00:46:45;6.70;99.90
26037;DHT22;13810;48.376;10.944;2023-12-29T00:47:15;6.70;99.90
26037;DHT22;13810;48.376;10.944;2023-12-29T00:47:46;6.70;99.90
26037;DHT22;13810;48.376;10.944;2023-12-29T00:48:18;6.70;99.90
26037;DHT22;13810;48.376;10.944;2023-12-29T00:48:49;6.70;99.90
26037;DHT22;13810;48.376;10.944;2023-12-29T00:49:19;6.70;99.90
26037;DHT22;13810;48.376;10.944;2023-12-29T00:49:50;6.70;99.90
26037;DHT22;13810;48.376;10.944;2023-12-29T00:50:21;6.70;99.90
26037;DHT22;13810;48.376;10.944;2023-12-29T00:50:51;6.70;99.90
26037;DHT22;13810;48.376;10.944;2023-12-29T00:51:22;6.70;99.90
26037;DHT22;13810;48.376;10.944;2023-12-29T00:51:53;6.70;99.90
26037;DHT22;13810;48.376;10.944;2023-12-29T00:52:23;6.80;99.90
26037;DHT22;13810;48.376;10.944;2023-12-29T00:52:54;6.70;99.90
26037;DHT22;13810;48.376;10.944;2023-12-29T00:53:25;6.70;99.90
26037;DHT22;13810;48.376;10.944;2023-12-29T00:53:55;6.70;99.90
26037;DHT22;13810;48.376;10.944;2023-12-29T00:54:26;6.80;99.90
26037;DHT22;13810;48.376;10.944;2023-12-29T00:54:56;6.70;99.90
26037;DHT22;13810;48.376;10.944;2023-12-29T00:55:27;6.70;99.90
26037;DHT22;13810;48.376;10.944;2023-12-29T00:55:59;6.70;99.90
26037;DHT22;13810;48.376;10.944;2023-12-29T00:56:30;6.70;99.90
26037;DHT22;13810;48.376;10.944;2023-12-29T00:57:00;6.60;99.90
26037;DHT22;13810;48.376;10.944;2023-12-29T00:57:31;6.60;99.90
26037;DHT22;13810;48.376;10.944;2023-12-29T00:58:02;6.60;99.90
26037;DHT22;13810;48.376;10.944;2023-12-29T00:58:32;6.60;99.90
26037;DHT22;13810;48.376;10.944;2023-12-29T00:59:03;6.60;99.90
26037;DHT22;13810;48.376;10.944;2023-12-29T00:59:37;6.60;99.90
26037;DHT22;13810;48.376;10.944;2023-12-29T01:00:12;6.60;99.90
26037;DHT22;13810;48.376;10.944;2023-12-29T01:00:43;6.60;99.90
26037;DHT22;13810;48.376;10.944;2023-12-29T01:01:13;6.60;99.90
26037;DHT22;13810;48.376;10.944;2023-12-29T01:01:44;6.60;99.90
26037;DHT22;13810;48.376;10.944;2023-12-29T01:02:15;6.60;99.90
26037;DHT22;13810;48.376;10.944;2023-12-29T01:02:46;6.60;99.90
26037;DHT22;13810;48.376;10.944;2023-12-29T01:03:17;6.60;99.90
26037;DHT22;13810;48.376;10.944;2023-12-29T01:03:48;6.60;99.90
26037;DHT22;13810;48.376;10.944;2023-12-29T01:04:18;6.60;99.90
26037;DHT22;13810;48.376;10.944;2023-12-29T01:04:49;6.60;99.90
26037;DHT22;13810;48.376;10.944;2023-12-29T01:05:20;6.60;99.90
26037;DHT22;13810;48.376;10.944;2023-12-29T01:05:54;6.60;99.90
26037;DHT22;13810;48.376;10.944;2023-12-29T01:06:25;6.60;99.90
26037;DHT22;13810;48.376;10.944;2023-12-29T01:06:55;6.60;99.90
26037;DHT22;13810;48.376;10.944;2023-12-29T01:07:26;6.50;99.90
26037;DHT22;13810;48.376;10.944;2023-12-29T01:07:56;6.60;99.90
26037;DHT22;13810;48.376;10.944;2023-12-29T01:08:27;6.60;99.90
26037;DHT22;13810;48.376;10.944;2023-12-29T01:08:58;6.60;99.90
26037;DHT22;13810;48.376;10.944;2023-12-29T01:09:29;6.60;99.90
26037;DHT22;13810;48.376;10.944;2023-12-29T01:09:59;6.50;99.90
26037;DHT22;13810;48.376;10.944;2023-12-29T01:10:31;6.60;99.90
26037;DHT22;13810;48.376;10.944;2023-12-29T01:11:02;6.60;99.90
26037;DHT22;13810;48.376;10.944;2023-12-29T01:11:32;6.50;99.90
26037;DHT22;13810;48.376;10.944;2023-12-29T01:12:03;6.50;99.90
26037;DHT22;13810;48.376;10.944;2023-12-29T01:12:34;6.60;99.90
26037;DHT22;13810;48.376;10.944;2023-12-29T01:13:05;6.60;99.90
26037;DHT22;13810;48.376;10.944;2023-12-29T01:13:36;6.50;99.90
26037;DHT22;13810;48.376;10.944;2023-12-29T01:14:06;6.50;99.90
26037;DHT22;13810;48.376;10.944;2023-12-29T01:14:37;6.50;99.90
26037;DHT22;13810;48.376;10.944;2023-12-29T01:15:08;6.50;99.90
26037;DHT22;13810;48.376;10.944;2023-12-29T01:15:39;6.50;99.90
26037;DHT22;13810;48.376;10.944;2023-12-29T01:16:10;6.50;99.90
26037;DHT22;13810;48.376;10.944;2023-12-29T01:16:41;6.50;99.90
26037;DHT22;13810;48.376;10.944;2023-12-29T01:17:12;6.50;99.90
26037;DHT22;13810;48.376;10.944;2023-12-29T01:17:43;6.50;99.90
26037;DHT22;13810;48.376;10.944;2023-12-29T01:18:13;6.50;99.90
26037;DHT22;13810;48.376;10.944;2023-12-29T01:18:45;6.50;99.90
26037;DHT22;13810;48.376;10.944;2023-12-29T01:19:16;6.60;99.90
26037;DHT22;13810;48.376;10.944;2023-12-29T01:19:47;6.60;99.90
26037;DHT22;13810;48.376;10.944;2023-12-29T01:20:17;6.60;99.90
26037;DHT22;13810;48.376;10.944;2023-12-29T01:20:48;6.60;99.90
26037;DHT22;13810;48.376;10.944;2023-12-29T01:21:19;6.60;99.90
26037;DHT22;13810;48.376;10.944;2023-12-29T01:21:49;6.60;99.90
26037;DHT22;13810;48.376;10.944;2023-12-29T01:22:20;6.60;99.90
26037;DHT22;13810;48.376;10.944;2023-12-29T01:22:51;6.70;99.90
26037;DHT22;13810;48.376;10.944;2023-12-29T01:23:21;6.70;99.90
26037;DHT22;13810;48.376;10.944;2023-12-29T01:23:52;6.70;99.90
26037;DHT22;13810;48.376;10.944;2023-12-29T01:24:23;6.70;99.90
26037;DHT22;13810;48.376;10.944;2023-12-29T01:24:54;6.70;99.90
26037;DHT22;13810;48.376;10.944;2023-12-29T01:25:24;6.70;99.90
26037;DHT22;13810;48.376;10.944;2023-12-29T01:25:55;6.70;99.90
26037;DHT22;13810;48.376;10.944;2023-12-29T01:26:26;6.70;99.90
26037;DHT22;13810;48.376;10.944;2023-12-29T01:26:56;6.70;99.90
26037;DHT22;13810;48.376;10.944;2023-12-29T01:27:28;6.80;99.90
26037;DHT22;13810;48.376;10.944;2023-12-29T01:27:59;6.80;99.90
26037;DHT22;13810;48.376;10.944;2023-12-29T01:28:30;6.80;99.90
26037;DHT22;13810;48.376;10.944;2023-12-29T01:29:00;6.80;99.90
26037;DHT22;13810;48.376;10.944;2023-12-29T01:29:31;6.80;99.90
26037;DHT22;13810;48.376;10.944;2023-12-29T01:30:02;6.80;99.90
26037;DHT22;13810;48.376;10.944;2023-12-29T01:30:32;6.80;99.90
26037;DHT22;13810;48.376;10.944;2023-12-29T01:31:03;6.80;99.90
26037;DHT22;13810;48.376;10.944;2023-12-29T01:31:34;6.80;99.90
26037;DHT22;13810;48.376;10.944;2023-12-29T01:32:05;6.80;99.90
26037;DHT22;13810;48.376;10.944;2023-12-29T01:32:38;6.80;99.90
26037;DHT22;13810;48.376;10.944;2023-12-29T01:33:09;6.80;99.90
26037;DHT22;13810;48.376;10.944;2023-12-29T01:33:39;6.80;99.90
26037;DHT22;13810;48.376;10.944;2023-12-29T01:34:10;6.80;99.90
26037;DHT22;13810;48.376;10.944;2023-12-29T01:34:41;6.80;99.90
26037;DHT22;13810;48.376;10.944;2023-12-29T01:35:11;6.90;99.90
26037;DHT22;13810;48.376;10.944;2023-12-29T01:35:42;6.80;99.90
26037;DHT22;13810;48.376;10.944;2023-12-29T01:36:18;6.80;99.90
26037;DHT22;13810;48.376;10.944;2023-12-29T01:36:49;6.80;99.90
26037;DHT22;13810;48.376;10.944;2023-12-29T01:37:21;6.80;99.90
26037;DHT22;13810;48.376;10.944;2023-12-29T01:37:52;6.80;99.90
26037;DHT22;13810;48.376;10.944;2023-12-29T01:38:22;6.80;99.90
26037;DHT22;13810;48.376;10.944;2023-12-29T01:38:53;6.80;99.90
26037;DHT22;13810;48.376;10.944;2023-12-29T01:39:24;6.70;99.90
26037;DHT22;13810;48.376;10.944;2023-12-29T01:39:55;6.70;99.90
26037;DHT22;13810;48.376;10.944;2023-12-29T01:40:25;6.70;99.90
26037;DHT22;13810;48.376;10.944;2023-12-29T01:40:56;6.70;99.90
26037;DHT22;13810;48.376;10.944;2023-12-29T01:41:27;6.70;99.90
26037;DHT22;13810;48.376;10.944;2023-12-29T01:41:57;6.70;99.90
26037;DHT22;13810;48.376;10.944;2023-12-29T01:42:28;6.70;99.90
26037;DHT22;13810;48.376;10.944;2023-12-29T01:42:59;6.80;99.90
26037;DHT22;13810;48.376;10.944;2023-12-29T01:43:29;6.70;99.90
26037;DHT22;13810;48.376;10.944;2023-12-29T01:44:31;6.70;99.90
26037;DHT22;13810;48.376;10.944;2023-12-29T01:45:02;6.80;99.90
26037;DHT22;13810;48.376;10.944;2023-12-29T01:45:32;6.70;99.90
26037;DHT22;13810;48.376;10.944;2023-12-29T01:46:03;6.70;99.90
26037;DHT22;13810;48.376;10.944;2023-12-29T01:46:34;6.70;99.90
26037;DHT22;13810;48.376;10.944;2023-12-29T01:47:13;6.70;99.90
26037;DHT22;13810;48.376;10.944;2023-12-29T01:47:46;6.70;99.90
26037;DHT22;13810;48.376;10.944;2023-12-29T01:48:17;6.80;99.90
26037;DHT22;13810;48.376;10.944;2023-12-29T01:48:48;6.70;99.90
26037;DHT22;13810;48.376;10.944;2023-12-29T01:49:20;6.70;99.90
26037;DHT22;13810;48.376;10.944;2023-12-29T01:49:51;6.70;99.90
26037;DHT22;13810;48.376;10.944;2023-12-29T01:50:22;6.70;99.90
26037;DHT22;13810;48.376;10.944;2023-12-29T01:50:55;6.60;99.90
26037;DHT22;13810;48.376;10.944;2023-12-29T01:51:27;6.60;99.90
26037;DHT22;13810;48.376;10.944;2023-12-29T01:52:00;6.60;99.90
26037;DHT22;13810;48.376;10.944;2023-12-29T01:52:31;6.60;99.90
26037;DHT22;13810;48.376;10.944;2023-12-29T01:53:03;6.50;99.90
26037;DHT22;13810;48.376;10.944;2023-12-29T01:53:34;6.50;99.90
26037;DHT22;13810;48.376;10.944;2023-12-29T01:54:05;6.50;99.90
26037;DHT22;13810;48.376;10.944;2023-12-29T01:54:36;6.50;99.90
26037;DHT22;13810;48.376;10.944;2023-12-29T01:55:11;6.40;99.90
26037;DHT22;13810;48.376;10.944;2023-12-29T01:55:43;6.40;99.90
26037;DHT22;13810;48.376;10.944;2023-12-29T01:56:14;6.40;99.90
26037;DHT22;13810;48.376;10.944;2023-12-29T01:56:45;6.40;99.90
26037;DHT22;13810;48.376;10.944;2023-12-29T01:57:17;6.40;99.90
26037;DHT22;13810;48.376;10.944;2023-12-29T01:57:48;6.40;99.90
26037;DHT22;13810;48.376;10.944;2023-12-29T01:58:19;6.40;99.90
26037;DHT22;13810;48.376;10.944;2023-12-29T01:58:51;6.30;99.90
26037;DHT22;13810;48.376;10.944;2023-12-29T01:59:22;6.30;99.90
26037;DHT22;13810;48.376;10.944;2023-12-29T01:59:54;6.30;99.90
26037;DHT22;13810;48.376;10.944;2023-12-29T02:00:25;6.30;99.90
26037;DHT22;13810;48.376;10.944;2023-12-29T02:00:57;6.20;99.90
26037;DHT22;13810;48.376;10.944;2023-12-29T02:01:28;6.20;99.90
26037;DHT22;13810;48.376;10.944;2023-12-29T02:01:58;6.20;99.90
26037;DHT22;13810;48.376;10.944;2023-12-29T02:02:29;6.20;99.90
26037;DHT22;13810;48.376;10.944;2023-12-29T02:03:00;6.10;99.90
26037;DHT22;13810;48.376;10.944;2023-12-29T02:03:30;6.10;99.90
26037;DHT22;13810;48.376;10.944;2023-12-29T02:04:01;6.10;99.90
26037;DHT22;13810;48.376;10.944;2023-12-29T02:04:32;6.00;99.90
26037;DHT22;13810;48.376;10.944;2023-12-29T02:05:03;6.00;99.90
26037;DHT22;13810;48.376;10.944;2023-12-29T02:05:34;5.90;99.90
26037;DHT22;13810;48.376;10.944;2023-12-29T02:06:06;5.90;99.90
26037;DHT22;13810;48.376;10.944;2023-12-29T02:06:37;5.90;99.90
26037;DHT22;13810;48.376;10.944;2023-12-29T02:07:09;5.90;99.90
26037;DHT22;13810;48.376;10.944;2023-12-29T02:07:41;5.80;99.90
26037;DHT22;13810;48.376;10.944;2023-12-29T02:08:11;5.80;99.90
26037;DHT22;13810;48.376;10.944;2023-12-29T02:08:43;5.80;99.90
26037;DHT22;13810;48.376;10.944;2023-12-29T02:09:15;5.80;99.90
26037;DHT22;13810;48.376;10.944;2023-12-29T02:09:47;5.70;99.90
26037;DHT22;13810;48.376;10.944;2023-12-29T02:10:19;5.70;99.90
26037;DHT22;13810;48.376;10.944;2023-12-29T02:10:49;5.60;99.90
26037;DHT22;13810;48.376;10.944;2023-12-29T02:11:20;5.60;99.90
26037;DHT22;13810;48.376;10.944;2023-12-29T02:11:51;5.60;99.90
26037;DHT22;13810;48.376;10.944;2023-12-29T02:12:22;5.60;99.90
26037;DHT22;13810;48.376;10.944;2023-12-29T02:12:52;5.60;99.90
26037;DHT22;13810;48.376;10.944;2023-12-29T02:13:27;5.60;99.90
26037;DHT22;13810;48.376;10.944;2023-12-29T02:13:59;5.60;99.90
26037;DHT22;13810;48.376;10.944;2023-12-29T02:14:30;5.50;99.90
26037;DHT22;13810;48.376;10.944;2023-12-29T02:15:01;5.50;99.90
26037;DHT22;13810;48.376;10.944;2023-12-29T02:15:32;5.50;99.90
26037;DHT22;13810;48.376;10.944;2023-12-29T02:16:09;5.60;99.90
26037;DHT22;13810;48.376;10.944;2023-12-29T02:16:45;5.60;99.90
26037;DHT22;13810;48.376;10.944;2023-12-29T02:17:37;5.60;99.90
26037;DHT22;13810;48.376;10.944;2023-12-29T02:18:14;5.60;99.90
26037;DHT22;13810;48.376;10.944;2023-12-29T02:18:45;5.60;99.90
26037;DHT22;13810;48.376;10.944;2023-12-29T02:19:38;5.60;99.90
26037;DHT22;13810;48.376;10.944;2023-12-29T02:20:10;5.60;99.90
26037;DHT22;13810;48.376;10.944;2023-12-29T02:20:42;5.60;99.90
26037;DHT22;13810;48.376;10.944;2023-12-29T02:21:13;5.70;99.90
26037;DHT22;13810;48.376;10.944;2023-12-29T02:21:43;5.60;99.90
26037;DHT22;13810;48.376;10.944;2023-12-29T02:22:14;5.60;99.90
26037;DHT22;13810;48.376;10.944;2023-12-29T02:22:45;5.70;99.90
26037;DHT22;13810;48.376;10.944;2023-12-29T02:23:16;5.70;99.90
26037;DHT22;13810;48.376;10.944;2023-12-29T02:23:46;5.70;99.90
26037;DHT22;13810;48.376;10.944;2023-12-29T02:24:17;5.70;99.90
26037;DHT22;13810;48.376;10.944;2023-12-29T02:24:51;5.80;99.90
26037;DHT22;13810;48.376;10.944;2023-12-29T02:25:22;5.80;99.90
26037;DHT22;13810;48.376;10.944;2023-12-29T02:25:55;5.80;99.90
26037;DHT22;13810;48.376;10.944;2023-12-29T02:26:29;5.90;99.90
26037;DHT22;13810;48.376;10.944;2023-12-29T02:27:18;6.00;99.90
26037;DHT22;13810;48.376;10.944;2023-12-29T02:27:52;6.00;99.90
26037;DHT22;13810;48.376;10.944;2023-12-29T02:28:26;6.00;99.90
26037;DHT22;13810;48.376;10.944;2023-12-29T02:29:00;6.00;99.90
26037;DHT22;13810;48.376;10.944;2023-12-29T02:29:33;6.10;99.90
26037;DHT22;13810;48.376;10.944;2023-12-29T02:30:12;6.10;99.90
26037;DHT22;13810;48.376;10.944;2023-12-29T02:30:45;6.10;99.90
26037;DHT22;13810;48.376;10.944;2023-12-29T02:31:22;6.20;99.90
26037;DHT22;13810;48.376;10.944;2023-12-29T02:31:59;6.20;99.90
26037;DHT22;13810;48.376;10.944;2023-12-29T02:32:33;6.30;99.90
26037;DHT22;13810;48.376;10.944;2023-12-29T02:33:10;6.30;99.90
26037;DHT22;13810;48.376;10.944;2023-12-29T02:33:41;6.40;99.90
26037;DHT22;13810;48.376;10.944;2023-12-29T02:34:14;6.40;99.90
26037;DHT22;13810;48.376;10.944;2023-12-29T02:34:47;6.40;99.90
26037;DHT22;13810;48.376;10.944;2023-12-29T02:35:23;6.40;99.90
26037;DHT22;13810;48.376;10.944;2023-12-29T02:35:56;6.40;99.90
26037;DHT22;13810;48.376;10.944;2023-12-29T02:36:30;6.50;99.90
26037;DHT22;13810;48.376;10.944;2023-12-29T02:37:01;6.50;99.90
26037;DHT22;13810;48.376;10.944;2023-12-29T02:37:35;6.50;99.90
26037;DHT22;13810;48.376;10.944;2023-12-29T02:38:06;6.60;99.90
26037;DHT22;13810;48.376;10.944;2023-12-29T02:38:37;6.60;99.90
26037;DHT22;13810;48.376;10.944;2023-12-29T02:39:10;6.60;99.90
26037;DHT22;13810;48.376;10.944;2023-12-29T02:39:41;6.60;99.90
26037;DHT22;13810;48.376;10.944;2023-12-29T02:40:12;6.60;99.90
26037;DHT22;13810;48.376;10.944;2023-12-29T02:40:42;6.60;99.90
26037;DHT22;13810;48.376;10.944;2023-12-29T02:41:13;6.60;99.90
26037;DHT22;13810;48.376;10.944;2023-12-29T02:41:45;6.70;99.90
26037;DHT22;13810;48.376;10.944;2023-12-29T02:42:16;6.60;99.90
26037;DHT22;13810;48.376;10.944;2023-12-29T02:42:48;6.70;99.90
26037;DHT22;13810;48.376;10.944;2023-12-29T02:43:19;6.70;99.90
26037;DHT22;13810;48.376;10.944;2023-12-29T02:43:49;6.70;99.90
26037;DHT22;13810;48.376;10.944;2023-12-29T02:44:20;6.70;99.90
26037;DHT22;13810;48.376;10.944;2023-12-29T02:44:51;6.70;99.90
26037;DHT22;13810;48.376;10.944;2023-12-29T02:45:21;6.70;99.90
26037;DHT22;13810;48.376;10.944;2023-12-29T02:45:52;6.70;99.90
26037;DHT22;13810;48.376;10.944;2023-12-29T02:46:23;6.70;99.90
26037;DHT22;13810;48.376;10.944;2023-12-29T02:46:53;6.70;99.90
26037;DHT22;13810;48.376;10.944;2023-12-29T02:47:24;6.70;99.90
26037;DHT22;13810;48.376;10.944;2023-12-29T02:47:55;6.70;99.90
26037;DHT22;13810;48.376;10.944;2023-12-29T02:48:26;6.70;99.90
26037;DHT22;13810;48.376;10.944;2023-12-29T02:48:56;6.70;99.90
26037;DHT22;13810;48.376;10.944;2023-12-29T02:49:27;6.60;99.90
26037;DHT22;13810;48.376;10.944;2023-12-29T02:49:57;6.60;99.90
26037;DHT22;13810;48.376;10.944;2023-12-29T02:50:28;6.60;99.90
26037;DHT22;13810;48.376;10.944;2023-12-29T02:50:59;6.60;99.90
26037;DHT22;13810;48.376;10.944;2023-12-29T02:51:29;6.60;99.90
26037;DHT22;13810;48.376;10.944;2023-12-29T02:52:00;6.60;99.90
26037;DHT22;13810;48.376;10.944;2023-12-29T02:52:31;6.60;99.90
26037;DHT22;13810;48.376;10.944;2023-12-29T02:53:02;6.60;99.90
26037;DHT22;13810;48.376;10.944;2023-12-29T02:53:34;6.70;99.90
26037;DHT22;13810;48.376;10.944;2023-12-29T02:54:05;6.70;99.90
26037;DHT22;13810;48.376;10.944;2023-12-29T02:54:36;6.70;99.90
26037;DHT22;13810;48.376;10.944;2023-12-29T02:55:07;6.70;99.90
26037;DHT22;13810;48.376;10.944;2023-12-29T02:55:38;6.70;99.90
26037;DHT22;13810;48.376;10.944;2023-12-29T02:56:08;6.70;99.90
26037;DHT22;13810;48.376;10.944;2023-12-29T02:56:39;6.60;99.90
26037;DHT22;13810;48.376;10.944;2023-12-29T02:57:10;6.70;99.90
26037;DHT22;13810;48.376;10.944;2023-12-29T02:57:40;6.60;99.90
26037;DHT22;13810;48.376;10.944;2023-12-29T02:58:11;6.60;99.90
26037;DHT22;13810;48.376;10.944;2023-12-29T02:58:42;6.60;99.90
26037;DHT22;13810;48.376;10.944;2023-12-29T02:59:13;6.60;99.90
26037;DHT22;13810;48.376;10.944;2023-12-29T02:59:43;6.60;99.90
26037;DHT22;13810;48.376;10.944;2023-12-29T03:00:14;6.60;99.90
26037;DHT22;13810;48.376;10.944;2023-12-29T03:00:45;6.60;99.90
26037;DHT22;13810;48.376;10.944;2023-12-29T03:01:15;6.60;99.90
26037;DHT22;13810;48.376;10.944;2023-12-29T03:01:46;6.60;99.90
26037;DHT22;13810;48.376;10.944;2023-12-29T03:02:17;6.60;99.90
26037;DHT22;13810;48.376;10.944;2023-12-29T03:02:47;6.60;99.90
26037;DHT22;13810;48.376;10.944;2023-12-29T03:03:18;6.50;99.90
26037;DHT22;13810;48.376;10.944;2023-12-29T03:03:49;6.50;99.90
26037;DHT22;13810;48.376;10.944;2023-12-29T03:04:19;6.60;99.90
26037;DHT22;13810;48.376;10.944;2023-12-29T03:04:50;6.50;99.90
26037;DHT22;13810;48.376;10.944;2023-12-29T03:05:21;6.50;99.90
26037;DHT22;13810;48.376;10.944;2023-12-29T03:05:51;6.50;99.90
26037;DHT22;13810;48.376;10.944;2023-12-29T03:06:22;6.50;99.90
26037;DHT22;13810;48.376;10.944;2023-12-29T03:06:53;6.50;99.90
26037;DHT22;13810;48.376;10.944;2023-12-29T03:07:23;6.50;99.90
26037;DHT22;13810;48.376;10.944;2023-12-29T03:07:54;6.50;99.90
26037;DHT22;13810;48.376;10.944;2023-12-29T03:08:24;6.50;99.90
26037;DHT22;13810;48.376;10.944;2023-12-29T03:08:55;6.50;99.90
26037;DHT22;13810;48.376;10.944;2023-12-29T03:09:26;6.50;99.90
26037;DHT22;13810;48.376;10.944;2023-12-29T03:09:56;6.50;99.90
26037;DHT22;13810;48.376;10.944;2023-12-29T03:10:27;6.50;99.90
26037;DHT22;13810;48.376;10.944;2023-12-29T03:10:58;6.50;99.90
26037;DHT22;13810;48.376;10.944;2023-12-29T03:11:29;6.50;99.90
26037;DHT22;13810;48.376;10.944;2023-12-29T03:12:00;6.50;99.90
26037;DHT22;13810;48.376;10.944;2023-12-29T03:12:30;6.50;99.90
26037;DHT22;13810;48.376;10.944;2023-12-29T03:13:01;6.50;99.90
26037;DHT22;13810;48.376;10.944;2023-12-29T03:13:34;6.50;99.90
26037;DHT22;13810;48.376;10.944;2023-12-29T03:14:05;6.50;99.90
26037;DHT22;13810;48.376;10.944;2023-12-29T03:14:38;6.50;99.90
26037;DHT22;13810;48.376;10.944;2023-12-29T03:15:09;6.50;99.90
26037;DHT22;13810;48.376;10.944;2023-12-29T03:15:39;6.50;99.90
26037;DHT22;13810;48.376;10.944;2023-12-29T03:16:10;6.50;99.90
26037;DHT22;13810;48.376;10.944;2023-12-29T03:16:41;6.50;99.90
26037;DHT22;13810;48.376;10.944;2023-12-29T03:17:11;6.60;99.90
26037;DHT22;13810;48.376;10.944;2023-12-29T03:17:42;6.50;99.90
26037;DHT22;13810;48.376;10.944;2023-12-29T03:18:13;6.50;99.90
26037;DHT22;13810;48.376;10.944;2023-12-29T03:18:44;6.50;99.90